| time (UTC) | temp F | wind direction | speed MPH | gust MPH | rain 1hr in | rain 24hr in | rain mn in | humidity % | barometer mb |
| 20260509180030 | 94 | 273 | 0.0 | 3.0 | 0.00 | 0.00 | 0.00 | 15 | 1007.6 |
| 20260509174526 | 94 | 105 | 0.0 | 3.0 | 0.00 | 0.00 | 0.00 | 15 | 1007.8 |
| 20260509173025 | 94 | 113 | 1.0 | 6.0 | 0.00 | 0.00 | 0.00 | 17 | 1007.9 |
| 20260509171524 | 92 | 285 | 0.0 | 2.0 | 0.00 | 0.00 | 0.00 | 17 | 1007.9 |
| 20260509170024 | 91 | 198 | 1.0 | 3.0 | 0.00 | 0.00 | 0.00 | 17 | 1008.0 |
| 20260509164521 | 89 | 278 | 0.0 | 6.0 | 0.00 | 0.00 | 0.00 | 20 | 1007.9 |
| 20260509163020 | 89 | 112 | 2.0 | 5.0 | 0.00 | 0.00 | 0.00 | 18 | 1008.0 |
| 20260509161521 | 88 | 98 | 0.0 | 5.0 | 0.00 | 0.00 | 0.00 | 19 | 1008.0 |
| 20260509160020 | 87 | 132 | 0.0 | 4.0 | 0.00 | 0.00 | 0.00 | 19 | 1008.0 |
| 20260509154550 | 86 | 203 | 2.0 | 7.0 | 0.00 | 0.00 | 0.00 | 19 | 1008.0 |
| 20260509153049 | 85 | 148 | 2.0 | 4.0 | 0.00 | 0.00 | 0.00 | 21 | 1008.0 |
| 20260509151518 | 83 | 84 | 0.0 | 4.0 | 0.00 | 0.00 | 0.00 | 22 | 1008.0 |
| 20260509150018 | 83 | 123 | 2.0 | 5.0 | 0.00 | 0.00 | 0.00 | 22 | 1007.9 |
| 20260509144547 | 81 | 103 | 1.0 | 4.0 | 0.00 | 0.00 | 0.00 | 24 | 1007.9 |
| 20260509143047 | 80 | 119 | 0.0 | 2.0 | 0.00 | 0.00 | 0.00 | 25 | 1007.8 |
| 20260509141517 | 79 | 110 | 0.0 | 1.0 | 0.00 | 0.00 | 0.00 | 25 | 1007.8 |
| 20260509140015 | 77 | 117 | 0.0 | 1.0 | 0.00 | 0.00 | 0.00 | 27 | 1007.8 |
| 20260509134545 | 76 | 114 | 0.0 | 1.0 | 0.00 | 0.00 | 0.00 | 29 | 1007.6 |
| 20260509133045 | 73 | 114 | 0.0 | 1.0 | 0.00 | 0.00 | 0.00 | 29 | 1007.4 |
| 20260509131514 | 72 | 108 | 0.0 | 0.0 | 0.00 | 0.00 | 0.00 | 29 | 1007.1 |
| 20260509130011 | 0 | 0.0 | 0.0 | 0.00 | 0.00 | 0.00 | 1006.9 | ||
| 20260509124542 | 0 | 0.0 | 0.0 | 0.00 | 0.00 | 0.00 | 1006.8 | ||
| 20260509123033 | 0 | 0.0 | 0.0 | 0.00 | 0.00 | 0.00 | 1006.6 | ||
| 20260509121528 | 0 | 0.0 | 0.0 | 0.00 | 0.00 | 0.00 | 1006.5 | ||
| 20260509120029 | 0 | 0.0 | 0.0 | 0.00 | 0.00 | 0.00 | 1006.3 | ||
| 20260509114516 | 0 | 0.0 | 0.0 | 0.00 | 0.00 | 0.00 | 1006.2 | ||
| 20260509113013 | 0 | 0.0 | 0.0 | 0.00 | 0.00 | 0.00 | 1006.1 | ||
| 20260509111610 | 68 | 128 | 0.0 | 0.0 | 0.00 | 0.00 | 0.00 | 36 | 1006.1 |
| 20260509110036 | 69 | 124 | 0.0 | 0.0 | 0.00 | 0.00 | 0.00 | 36 | 1006.2 |
| 20260509104535 | 70 | 124 | 0.0 | 0.0 | 0.00 | 0.00 | 0.00 | 36 | 1006.0 |
| 20260509103030 | 69 | 119 | 0.0 | 0.0 | 0.00 | 0.00 | 0.00 | 37 | 1005.9 |
| 20260509101534 | 70 | 121 | 0.0 | 0.0 | 0.00 | 0.00 | 0.00 | 37 | 1005.9 |
| 20260509100029 | 70 | 131 | 0.0 | 1.0 | 0.00 | 0.00 | 0.00 | 37 | 1005.8 |
| 20260509094528 | 70 | 131 | 0.0 | 0.0 | 0.00 | 0.00 | 0.00 | 38 | 1005.7 |
| 20260509093027 | 70 | 120 | 0.0 | 1.0 | 0.00 | 0.00 | 0.00 | 39 | 1005.8 |
| 20260509091526 | 70 | 249 | 0.0 | 0.0 | 0.00 | 0.00 | 0.00 | 39 | 1005.9 |
| 20260509090025 | 69 | 249 | 0.0 | 0.0 | 0.00 | 0.00 | 0.00 | 39 | 1005.8 |
| 20260509084532 | 70 | 249 | 0.0 | 0.0 | 0.00 | 0.00 | 0.00 | 38 | 1005.8 |
| 20260509083027 | 71 | 249 | 0.0 | 0.0 | 0.00 | 0.00 | 0.00 | 36 | 1005.8 |
| 20260509081516 | 72 | 249 | 0.0 | 0.0 | 0.00 | 0.00 | 0.00 | 34 | 1005.7 |
| 20260509080011 | 73 | 249 | 0.0 | 0.0 | 0.00 | 0.00 | 0.00 | 32 | 1005.7 |
| 20260509074510 | 75 | 249 | 0.0 | 0.0 | 0.00 | 0.00 | 0.00 | 30 | 1005.6 |
| 20260509073002 | 76 | 249 | 0.0 | 0.0 | 0.00 | 0.00 | 0.00 | 29 | 1005.7 |
| 20260509071600 | 76 | 249 | 0.0 | 0.0 | 0.00 | 0.00 | 0.00 | 28 | 1005.6 |
| 20260509070104 | 77 | 249 | 0.0 | 0.0 | 0.00 | 0.00 | 0.00 | 27 | 1005.6 |
| 20260509064555 | 78 | 249 | 0.0 | 0.0 | 0.00 | 0.00 | 0.00 | 25 | 1005.5 |
| 20260509063046 | 80 | 249 | 0.0 | 0.0 | 0.00 | 0.00 | 0.00 | 21 | 1005.5 |
| 20260509061553 | 82 | 249 | 0.0 | 1.0 | 0.00 | 0.00 | 0.00 | 20 | 1005.5 |
| 20260509060050 | 83 | 249 | 0.0 | 1.0 | 0.00 | 0.00 | 0.00 | 20 | 1005.4 |
| 20260509054546 | 84 | 249 | 0.0 | 1.0 | 0.00 | 0.00 | 0.00 | 19 | 1005.4 |
| 20260509053005 | 84 | 249 | 0.0 | 0.0 | 0.00 | 0.00 | 0.00 | 19 | 1005.4 |
| 20260509051502 | 86 | 250 | 0.0 | 1.0 | 0.00 | 0.00 | 0.00 | 18 | 1005.4 |
| 20260509050137 | 86 | 266 | 0.0 | 2.0 | 0.00 | 0.00 | 0.00 | 18 | 1005.4 |
| 20260509044603 | 87 | 274 | 0.0 | 2.0 | 0.00 | 0.00 | 0.00 | 18 | 1005.2 |
| 20260509043055 | 87 | 256 | 0.0 | 1.0 | 0.00 | 0.00 | 0.00 | 18 | 1005.1 |
| 20260509041552 | 89 | 256 | 0.0 | 2.0 | 0.00 | 0.00 | 0.00 | 17 | 1005.0 |
| 20260509040051 | 90 | 278 | 1.0 | 4.0 | 0.00 | 0.00 | 0.00 | 16 | 1004.7 |
| 20260509034548 | 90 | 255 | 1.0 | 5.0 | 0.00 | 0.00 | 0.00 | 15 | 1004.5 |
| 20260509033048 | 89 | 284 | 0.0 | 2.0 | 0.00 | 0.00 | 0.00 | 15 | 1004.2 |
| 20260509031549 | 91 | 241 | 0.0 | 3.0 | 0.00 | 0.00 | 0.00 | 15 | 1004.1 |
| 20260509030045 | 92 | 256 | 0.0 | 4.0 | 0.00 | 0.00 | 0.00 | 14 | 1004.0 |
| 20260509024544 | 92 | 276 | 1.0 | 3.0 | 0.00 | 0.00 | 0.00 | 14 | 1003.8 |
| 20260509023055 | 93 | 224 | 0.0 | 5.0 | 0.00 | 0.00 | 0.00 | 13 | 1003.7 |
| 20260509021543 | 94 | 278 | 1.0 | 12.0 | 0.00 | 0.00 | 0.00 | 12 | 1003.5 |
| 20260509020017 | 95 | 272 | 2.0 | 7.0 | 0.00 | 0.00 | 0.00 | 12 | 1003.5 |
| 20260509014511 | 97 | 280 | 2.0 | 7.0 | 0.00 | 0.00 | 0.00 | 12 | 1003.4 |
| 20260509013011 | 97 | 274 | 2.0 | 7.0 | 0.00 | 0.00 | 0.00 | 12 | 1003.3 |
| 20260509011507 | 98 | 285 | 1.0 | 10.0 | 0.00 | 0.00 | 0.00 | 13 | 1003.4 |
| 20260509010005 | 98 | 276 | 3.0 | 9.0 | 0.00 | 0.00 | 0.00 | 12 | 1003.5 |
| 20260509004512 | 98 | 305 | 2.0 | 10.0 | 0.00 | 0.00 | 0.00 | 13 | 1003.6 |
| 20260509003003 | 99 | 250 | 1.0 | 11.0 | 0.00 | 0.00 | 0.00 | 14 | 1003.8 |
| 20260509001504 | 99 | 319 | 2.0 | 6.0 | 0.00 | 0.00 | 0.00 | 12 | 1003.9 |
| 20260509000110 | 100 | 278 | 1.0 | 7.0 | 0.00 | 0.00 | 0.00 | 13 | 1004.0 |
| 20260508234559 | 100 | 316 | 2.0 | 7.0 | 0.00 | 0.00 | 0.00 | 12 | 1004.1 |
| 20260508233024 | 99 | 288 | 1.0 | 8.0 | 0.00 | 0.00 | 0.00 | 13 | 1004.2 |
| 20260508231522 | 98 | 277 | 3.0 | 11.0 | 0.00 | 0.00 | 0.00 | 12 | 1004.5 |
| 20260508224548 | 99 | 274 | 2.0 | 11.0 | 0.00 | 0.00 | 0.00 | 13 | 1004.6 |
| 20260508223043 | 98 | 296 | 4.0 | 10.0 | 0.00 | 0.00 | 0.00 | 12 | 1004.8 |
| 20260508221541 | 98 | 259 | 2.0 | 10.0 | 0.00 | 0.00 | 0.00 | 13 | 1005.1 |
| 20260508220037 | 97 | 293 | 3.0 | 9.0 | 0.00 | 0.00 | 0.00 | 15 | 1005.4 |
| 20260508214535 | 97 | 273 | 3.0 | 9.0 | 0.00 | 0.00 | 0.00 | 14 | 1005.8 |
| 20260508213031 | 96 | 279 | 2.0 | 9.0 | 0.00 | 0.00 | 0.00 | 14 | 1006.1 |
| 20260508211528 | 96 | 241 | 2.0 | 8.0 | 0.00 | 0.00 | 0.00 | 14 | 1006.4 |
| 20260508210022 | 95 | 322 | 2.0 | 9.0 | 0.00 | 0.00 | 0.00 | 15 | 1006.7 |
| 20260508204518 | 94 | 281 | 2.0 | 7.0 | 0.00 | 0.00 | 0.00 | 15 | 1006.9 |
| 20260508203017 | 94 | 275 | 1.0 | 5.0 | 0.00 | 0.00 | 0.00 | 15 | 1007.1 |
| 20260508201544 | 93 | 107 | 2.0 | 8.0 | 0.00 | 0.00 | 0.00 | 16 | 1007.2 |
| 20260508200041 | 93 | 280 | 2.0 | 8.0 | 0.00 | 0.00 | 0.00 | 15 | 1007.6 |
| 20260508194604 | 93 | 111 | 1.0 | 4.0 | 0.00 | 0.00 | 0.00 | 17 | 1007.8 |
| 20260508193033 | 91 | 274 | 1.0 | 7.0 | 0.00 | 0.00 | 0.00 | 17 | 1008.1 |
| 20260508191530 | 91 | 285 | 2.0 | 6.0 | 0.00 | 0.00 | 0.00 | 16 | 1008.3 |
| 20260508190026 | 92 | 212 | 0.0 | 3.0 | 0.00 | 0.00 | 0.00 | 18 | 1008.6 |
| 20260508184553 | 90 | 282 | 1.0 | 6.0 | 0.00 | 0.00 | 0.00 | 19 | 1008.7 |
| 20260508183051 | 90 | 130 | 0.0 | 4.0 | 0.00 | 0.00 | 0.00 | 20 | 1008.9 |
| 20260508181526 | 89 | 120 | 2.0 | 5.0 | 0.00 | 0.00 | 0.00 | 19 | 1009.1 |